Terminal Aerodrome Forecast
Issued by NWS

Home | Current Version | Previous Version | Text Only | Print | Product List | Glossary Off
Versions: 1 2 3 4 5 6 7 8 9 10 11 12 13 14 15 16 17 18 19

000
FTUS43 KIWX 300900 AAA
TAFSBN
TAF AMD
KSBN 300953Z 3010/3106 34015G25KT P6SM -SN SCT025 OVC040
      TEMPO 3010/3012 3SM -SHSN OVC025
     FM301200 34012KT P6SM BKN030
     FM302300 27006KT P6SM SCT030=

USA.gov is the U.S. government's official web portal to all federal, state and local government web resources and services.